createdAt,value
2023-01-15T04:46:22.620Z,9.80
2023-01-15T04:48:50.684Z,9.50
2023-01-15T04:51:19.060Z,10.10
2023-01-15T04:53:47.176Z,10.10
2023-01-15T04:56:15.232Z,9.80
2023-01-15T05:08:39.859Z,9.80
2023-01-15T05:43:58.216Z,10.10
2023-01-15T05:53:52.991Z,10.00
2023-01-15T05:56:21.123Z,10.50
2023-01-15T07:28:58.127Z,10.60
2023-01-15T09:22:30.149Z,10.40
2023-01-15T09:24:58.368Z,8.60
2023-01-15T09:27:26.768Z,8.40
2023-01-15T09:29:56.983Z,8.10
2023-01-15T09:32:25.075Z,7.60
2023-01-15T09:34:54.379Z,7.00
2023-01-15T09:37:22.536Z,7.70
2023-01-15T09:39:50.677Z,7.50
2023-01-15T09:42:34.650Z,7.40
2023-01-15T09:45:25.168Z,7.30
2023-01-15T09:48:22.804Z,7.30
2023-01-15T09:51:03.271Z,7.10
2023-01-15T09:53:55.375Z,6.80
2023-01-15T09:56:27.750Z,6.50
2023-01-15T09:58:58.270Z,6.70
2023-01-15T10:01:30.952Z,6.50
2023-01-15T10:04:05.481Z,6.60
2023-01-15T10:06:40.866Z,6.40
2023-01-15T10:09:15.726Z,6.70
2023-01-15T10:12:04.543Z,6.30
2023-01-15T10:14:48.098Z,6.30
2023-01-15T10:17:23.659Z,6.60
2023-01-15T10:19:53.031Z,6.80
2023-01-15T10:22:40.255Z,6.60
2023-01-15T10:25:16.512Z,6.40
2023-01-15T10:27:48.966Z,6.50
2023-01-15T10:30:19.196Z,6.40
2023-01-15T10:33:02.017Z,6.50
2023-01-15T10:35:43.116Z,6.70
2023-01-15T10:38:21.423Z,6.70
2023-01-15T10:41:14.697Z,6.70
2023-01-15T10:43:51.892Z,6.60
2023-01-15T10:46:25.255Z,6.30
2023-01-15T10:48:58.540Z,6.30
2023-01-15T10:51:31.508Z,6.50
2023-01-15T10:54:04.332Z,6.40
2023-01-15T10:56:36.746Z,6.60
2023-01-15T10:59:14.124Z,6.30
2023-01-15T11:01:42.490Z,6.60
2023-01-15T11:04:13.890Z,6.50
2023-01-15T14:09:53.433Z,6.40
2023-01-15T14:12:42.606Z,4.80
2023-01-15T14:15:36.292Z,4.70
2023-01-15T14:18:31.984Z,4.80
2023-01-15T14:21:21.634Z,4.50
2023-01-15T14:24:02.289Z,4.60
2023-01-15T14:26:44.381Z,4.90
2023-01-15T14:29:57.892Z,4.70
2023-01-15T14:32:36.737Z,4.60
2023-01-15T14:35:05.777Z,4.70
2023-01-15T14:37:39.300Z,4.70
2023-01-15T14:40:18.267Z,4.80
2023-01-15T14:43:04.721Z,4.70
2023-01-15T14:45:36.347Z,4.50
2023-01-15T14:48:06.216Z,4.60
2023-01-15T14:50:39.304Z,4.40
2023-01-15T14:53:20.295Z,4.60
2023-01-15T14:55:51.967Z,4.40
2023-01-15T14:58:37.229Z,4.80
2023-01-15T15:01:15.536Z,4.60
2023-01-15T15:03:51.125Z,4.50
2023-01-15T15:06:19.692Z,3.90
2023-01-15T15:57:51.157Z,4.80
2023-01-15T16:00:24.948Z,4.70
2023-01-15T17:41:20.509Z,4.80
2023-01-15T17:43:49.041Z,3.50
2023-01-15T18:34:43.296Z,4.20
2023-01-15T18:37:13.211Z,3.60
2023-01-15T18:39:41.355Z,3.50
2023-01-15T18:42:28.478Z,3.70
2023-01-15T18:45:15.306Z,3.10
